Погода Шапада дос Гуимарена неделю

Мату-Гросу, Бразилия

23 - 29 июля
  • 23июля
    Сегодня
    +19°
    +31°
    Ясно и безоблачно
    ВремяПогодаТемператураВлажностьДавлениеВетер, м/сВероятность осадков
    02:00Ясно и безоблачно+22°C39 %699 мм2.9 м/с5 %
    05:00Небольшая облачность+19°C45 %698 мм2.6 м/с5 %
    08:00Небольшая облачность+23°C39 %701 мм1.6 м/с5 %
    11:00Облачно с прояснениями+28°C23 %702 мм3.8 м/с5 %
    14:00Ясно и безоблачно+31°C19 %700 мм2.6 м/с5 %
    17:00Ясно и безоблачно+29°C32 %699 мм1.1 м/с5 %
    20:00Ясно и безоблачно+23°C32 %699 мм1.7 м/с5 %
    23:00Ясно и безоблачно+21°C36 %699 мм1.8 м/с5 %
  • 24июля
    Среда
    +21°
    +32°
    Ясно и безоблачно
    ВремяПогодаТемператураВлажностьДавлениеВетер, м/сВероятность осадков
    02:00Ясно и безоблачно+23°C35 %698 мм3.3 м/с5 %
    05:00Ясно и безоблачно+20°C42 %698 мм3.0 м/с5 %
    08:00Ясно и безоблачно+23°C36 %701 мм2.7 м/с5 %
    11:00Ясно и безоблачно+29°C23 %702 мм4.8 м/с5 %
    14:00Ясно и безоблачно+31°C22 %700 мм3.2 м/с5 %
    17:00Ясно и безоблачно+30°C29 %699 мм1.7 м/с5 %
    20:00Ясно и безоблачно+25°C33 %699 мм1.8 м/с5 %
    23:00Ясно и безоблачно+23°C35 %699 мм1.5 м/с5 %
  • 25июля
    Четверг
    +21°
    +33°
    Практически безоблачно
    ВремяПогодаТемператураВлажностьДавлениеВетер, м/сВероятность осадков
    02:00Ясно и безоблачно+24°C35 %699 мм2.0 м/с5 %
    05:00Ясно и безоблачно+22°C41 %699 мм1.6 м/с5 %
    08:00Ясно и безоблачно+26°C37 %701 мм2.0 м/с5 %
    11:00Ясно и безоблачно+31°C21 %701 мм0.6 м/с5 %
    14:00Практически безоблачно+32°C19 %699 мм3.0 м/с5 %
    17:00Ясно и безоблачно+30°C31 %698 мм1.6 м/с5 %
    20:00Ясно и безоблачно+24°C30 %698 мм0.9 м/с5 %
    23:00Ясно и безоблачно+25°C31 %698 мм1.5 м/с5 %
  • 26июля
    Пятница
    +22°
    +34°
    Практически безоблачно
    ВремяПогодаТемператураВлажностьДавлениеВетер, м/сВероятность осадков
    02:00Ясно и безоблачно+22°C39 %697 мм1.6 м/с5 %
    05:00Облачно с прояснениями+22°C37 %697 мм2.1 м/с5 %
    08:00Облачно с прояснениями+26°C32 %699 мм2.8 м/с5 %
    11:00Небольшая облачность+31°C21 %700 мм3.8 м/с5 %
    14:00Практически безоблачно+33°C17 %698 мм0.6 м/с5 %
    17:00Ясно и безоблачно+32°C26 %698 мм0.6 м/с5 %
    20:00Ясно и безоблачно+28°C25 %698 мм0.3 м/с5 %
    23:00Ясно и безоблачно+25°C29 %698 мм1.2 м/с5 %
Мы используем cookies
Соглашаюсь